Pagrindinis puslapis
METAR-TAF:

METAR-TAF

Oro uostai :

Aniak, Aliaska, Jungtinės Amerikos Valstijos

platuma: 61-34-53N, ilguma: 159-32-34W, Aukštis: 27 m

Dabartinis oras

Ataskaita buvo paskelbta 43 minutes, ne 07:56 UTC
Vėjas 5 kt iš Vakarų/Šiaurės Vakarų
Temperatūra 11°C
Drėgmė 94%
Slėgis 1002 hPa
Matomumas: 16.1 km
Su prošvaistėmis ne aukštis 1200 ft
Su prošvaistėmis ne aukštis 1700 ft
Apsiniaukę ne aukštis 6500 ft

METAR: PANI 160756Z AUTO 30005KT 10SM BKN012 BKN017 OVC065 11/10 A2959 RMK AO2 RAB18E29 SLP022 P0000 T01110100

Laikas: 00:39 (08:39 UTC)


TAF: trūkstamas

Orai ataskaitas ir orų prognozės (METAR, TAF).

turimą stotys yra geltonos ir raudonos taškus žemėlapyje.

Perkelti pele per norėdami pamatyti stoties vardą.

Tada spustelėkite, norėdami matyti oro stebėjimo ir prognozės.

Norėdami pakeisti žemėlapį: spustelėkite ant žalios mygtukų su juodo kryžiaus žemyn,; žalią mygtuką su brūkšneliu, jei norite nutolinti; arba žalių rodyklių gretimoms žemėlapius.


METAR-TAF: